createdAt,value
2018-05-10T00:01:51.510Z,79.50
2018-05-10T00:04:19.754Z,79.60
2018-05-10T00:06:48.414Z,79.80
2018-05-10T00:09:16.841Z,80.30
2018-05-10T00:11:44.392Z,81.00
2018-05-10T00:14:11.982Z,80.70
2018-05-10T00:16:41.579Z,81.10
2018-05-10T00:19:09.134Z,81.10
2018-05-10T00:21:37.715Z,81.60
2018-05-10T00:24:05.259Z,82.20
2018-05-10T00:26:32.949Z,82.70
2018-05-10T00:29:01.208Z,83.10
2018-05-10T00:31:28.813Z,83.70
2018-05-10T00:33:56.338Z,84.00
2018-05-10T00:36:23.993Z,84.30
2018-05-10T00:38:52.174Z,84.80
2018-05-10T00:41:19.761Z,84.80
2018-05-10T00:43:48.274Z,85.00
2018-05-10T00:46:15.750Z,84.90
2018-05-10T00:48:44.114Z,85.00
2018-05-10T00:51:12.978Z,84.90
2018-05-10T00:53:41.233Z,84.90
2018-05-10T00:56:09.329Z,84.60
2018-05-10T00:58:37.181Z,84.70
2018-05-10T01:01:04.855Z,84.30
2018-05-10T01:03:33.439Z,84.70
2018-05-10T01:06:01.028Z,84.90
2018-05-10T01:08:28.598Z,84.90
2018-05-10T01:10:56.818Z,84.70
2018-05-10T01:13:24.427Z,84.80
2018-05-10T01:15:51.956Z,84.70
2018-05-10T01:18:19.538Z,84.20
2018-05-10T01:20:47.244Z,84.60
2018-05-10T01:23:18.597Z,85.40
2018-05-10T01:25:46.254Z,84.60
2018-05-10T01:28:13.898Z,84.30
2018-05-10T01:30:42.396Z,84.40
2018-05-10T01:33:10.194Z,84.60
2018-05-10T01:35:49.853Z,84.60
2018-05-10T01:38:17.909Z,84.60
2018-05-10T01:40:45.431Z,84.80
2018-05-10T01:43:13.095Z,84.90
2018-05-10T01:45:41.686Z,84.80
2018-05-10T01:48:10.167Z,84.70
2018-05-10T01:50:37.799Z,84.60
2018-05-10T01:53:06.732Z,84.30
2018-05-10T01:55:34.274Z,84.10
2018-05-10T01:58:01.841Z,84.30
2018-05-10T02:00:29.396Z,84.40
2018-05-10T02:02:56.958Z,84.60
2018-05-10T02:05:24.505Z,84.90
2018-05-10T02:07:52.098Z,85.10
2018-05-10T02:10:19.677Z,85.60
2018-05-10T02:12:47.206Z,85.80
2018-05-10T02:15:14.762Z,86.20
2018-05-10T02:17:42.723Z,86.50
2018-05-10T02:20:10.553Z,86.60
2018-05-10T02:22:38.072Z,87.00
2018-05-10T02:25:05.658Z,87.20
2018-05-10T02:27:33.290Z,87.30
2018-05-10T02:30:01.114Z,87.10
2018-05-10T02:32:29.575Z,87.40
2018-05-10T02:34:57.281Z,87.40
2018-05-10T02:37:24.852Z,87.10
2018-05-10T02:39:52.396Z,86.90
2018-05-10T02:42:19.922Z,87.00
2018-05-10T02:44:48.659Z,86.80
2018-05-10T02:47:18.104Z,86.80
2018-05-10T02:49:46.627Z,86.80
2018-05-10T02:52:14.226Z,87.30
2018-05-10T02:54:41.826Z,87.10
2018-05-10T02:57:09.346Z,86.90
2018-05-10T02:59:36.884Z,87.00
2018-05-10T03:02:05.292Z,86.70
2018-05-10T03:04:33.072Z,86.30
2018-05-10T03:07:01.350Z,86.10
2018-05-10T03:09:29.100Z,86.10
2018-05-10T03:11:56.752Z,86.00
2018-05-10T03:14:24.274Z,86.10
2018-05-10T03:16:51.888Z,86.30
2018-05-10T03:19:20.392Z,87.20
2018-05-10T03:21:48.476Z,86.30
2018-05-10T03:24:17.612Z,86.40
2018-05-10T03:26:45.284Z,86.40
2018-05-10T03:29:13.010Z,86.20
2018-05-10T03:31:41.316Z,86.00
2018-05-10T03:34:08.872Z,86.10
2018-05-10T03:36:37.251Z,85.90
2018-05-10T03:39:05.476Z,85.70
2018-05-10T03:41:33.001Z,85.40
2018-05-10T03:44:00.625Z,85.70
2018-05-10T03:46:30.368Z,86.30
2018-05-10T03:48:58.631Z,85.70
2018-05-10T03:51:26.166Z,85.70
2018-05-10T03:53:54.557Z,85.70
2018-05-10T03:56:22.834Z,85.60
2018-05-10T03:58:50.628Z,85.60
2018-05-10T04:01:18.253Z,85.60
2018-05-10T04:03:58.515Z,86.10
2018-05-10T04:06:37.996Z,86.10
2018-05-10T04:09:17.432Z,85.90
2018-05-10T04:11:45.081Z,85.70
2018-05-10T04:14:12.677Z,85.50
2018-05-10T04:16:40.195Z,85.20
2018-05-10T04:19:07.777Z,84.80
2018-05-10T04:21:35.577Z,84.80
2018-05-10T04:24:03.124Z,84.80
2018-05-10T04:26:30.623Z,84.90
2018-05-10T04:28:58.947Z,85.00
2018-05-10T04:31:27.446Z,84.80
2018-05-10T04:33:55.931Z,85.10
2018-05-10T04:36:23.448Z,85.00
2018-05-10T04:38:51.391Z,84.60
2018-05-10T04:41:19.897Z,84.40
2018-05-10T04:43:48.003Z,84.00
2018-05-10T04:46:16.358Z,83.10
2018-05-10T04:48:43.913Z,82.90
2018-05-10T04:51:12.046Z,82.20
2018-05-10T04:53:39.610Z,81.60
2018-05-10T04:56:09.671Z,80.40
2018-05-10T04:58:37.263Z,80.40
2018-05-10T05:01:04.842Z,80.20
2018-05-10T05:03:32.401Z,80.00
2018-05-10T05:06:00.715Z,79.40
2018-05-10T05:08:29.018Z,79.40
2018-05-10T05:10:57.668Z,78.70
2018-05-10T05:13:25.316Z,79.10
2018-05-10T05:15:52.866Z,78.90
2018-05-10T05:18:21.270Z,79.00
2018-05-10T05:20:48.871Z,78.70
2018-05-10T05:23:16.490Z,79.20
2018-05-10T05:25:44.102Z,79.30
2018-05-10T05:28:11.832Z,79.20
2018-05-10T05:30:39.371Z,78.80
2018-05-10T05:33:07.530Z,78.60
2018-05-10T05:35:35.315Z,78.60
2018-05-10T05:38:03.737Z,77.70
2018-05-10T05:40:31.261Z,77.60
2018-05-10T05:42:58.907Z,77.60
2018-05-10T05:45:26.823Z,75.20
2018-05-10T05:47:55.325Z,73.90
2018-05-10T05:50:22.896Z,71.80
2018-05-10T05:52:50.730Z,71.00
2018-05-10T05:55:18.467Z,70.60
2018-05-10T05:57:46.190Z,71.00
2018-05-10T06:00:14.646Z,70.60
2018-05-10T06:02:42.520Z,70.00
2018-05-10T06:05:10.768Z,69.70
2018-05-10T06:07:38.408Z,68.90
2018-05-10T06:10:06.102Z,66.70
2018-05-10T06:12:33.702Z,65.40
2018-05-10T06:15:01.836Z,65.10
2018-05-10T06:17:30.168Z,65.50
2018-05-10T06:19:59.220Z,67.10
2018-05-10T06:22:26.857Z,67.10
2018-05-10T06:24:54.539Z,67.50
2018-05-10T06:27:22.407Z,66.70
2018-05-10T06:29:50.178Z,67.30
2018-05-10T06:32:17.804Z,67.00
2018-05-10T06:34:45.336Z,67.70
2018-05-10T06:37:13.200Z,68.50
2018-05-10T06:39:41.493Z,68.90
2018-05-10T06:42:09.180Z,68.90
2018-05-10T06:44:36.766Z,69.50
2018-05-10T06:47:04.375Z,68.50
2018-05-10T06:49:32.299Z,68.50
2018-05-10T06:52:00.316Z,68.30
2018-05-10T06:54:27.897Z,68.80
2018-05-10T06:56:55.666Z,69.10
2018-05-10T06:59:23.248Z,69.20
2018-05-10T07:01:51.165Z,68.90
2018-05-10T07:04:18.757Z,68.10
2018-05-10T07:06:46.332Z,66.80
2018-05-10T07:09:13.963Z,65.10
2018-05-10T07:11:42.022Z,63.00
2018-05-10T07:14:09.750Z,61.20
2018-05-10T07:16:37.583Z,59.80
2018-05-10T07:19:05.356Z,58.00
2018-05-10T07:21:33.194Z,57.70
2018-05-10T07:24:01.588Z,55.70
2018-05-10T07:26:29.140Z,55.60
2018-05-10T07:28:56.695Z,56.10
2018-05-10T07:31:24.986Z,54.40
2018-05-10T07:33:52.732Z,54.30
2018-05-10T07:36:20.331Z,53.90
2018-05-10T07:38:47.904Z,53.80
2018-05-10T07:41:15.434Z,53.40
2018-05-10T07:43:42.995Z,53.00
2018-05-10T07:46:10.515Z,53.10
2018-05-10T07:48:38.848Z,52.90
2018-05-10T07:51:06.602Z,52.20
2018-05-10T07:53:36.226Z,48.20
2018-05-10T07:56:03.858Z,48.20
2018-05-10T07:58:31.615Z,46.60
2018-05-10T08:00:59.299Z,46.10
2018-05-10T08:03:26.836Z,45.50
2018-05-10T08:05:56.094Z,45.90
2018-05-10T08:08:25.474Z,45.90
2018-05-10T08:10:53.223Z,45.60
2018-05-10T08:13:21.060Z,44.60
2018-05-10T08:15:48.873Z,44.60
2018-05-10T08:18:16.449Z,43.40
2018-05-10T08:20:45.111Z,44.30
2018-05-10T08:23:12.707Z,44.10
2018-05-10T08:25:41.044Z,43.90
2018-05-10T08:28:08.581Z,44.40
2018-05-10T08:30:37.470Z,46.20
2018-05-10T08:33:05.106Z,46.60
2018-05-10T08:35:34.211Z,46.90
2018-05-10T08:38:01.954Z,46.80
2018-05-10T08:40:29.629Z,46.30
2018-05-10T08:42:57.377Z,46.90
2018-05-10T08:45:25.593Z,47.00
2018-05-10T08:47:54.124Z,47.30
2018-05-10T08:50:21.629Z,48.40
2018-05-10T08:52:50.709Z,48.80
2018-05-10T08:55:19.289Z,48.50
2018-05-10T08:57:46.886Z,49.50
2018-05-10T09:00:14.453Z,49.50
2018-05-10T09:02:42.006Z,49.50
2018-05-10T09:05:09.677Z,49.90
2018-05-10T09:07:37.465Z,49.20
2018-05-10T09:10:04.992Z,50.20
2018-05-10T09:12:33.076Z,50.40
2018-05-10T09:15:02.691Z,50.70
2018-05-10T09:17:30.586Z,50.60
2018-05-10T09:20:00.702Z,51.20
2018-05-10T09:22:29.104Z,51.50
2018-05-10T09:24:56.741Z,51.60
2018-05-10T09:27:24.722Z,52.10
2018-05-10T09:29:52.368Z,52.70
2018-05-10T09:32:20.077Z,52.60
2018-05-10T09:34:48.381Z,53.20
2018-05-10T09:37:16.083Z,52.80
2018-05-10T09:39:43.735Z,52.80
2018-05-10T09:42:11.311Z,52.70
2018-05-10T09:44:39.899Z,52.20
2018-05-10T09:47:07.460Z,52.70
2018-05-10T09:49:34.965Z,52.30
2018-05-10T09:52:02.500Z,52.10
2018-05-10T09:54:30.323Z,52.20
2018-05-10T09:56:58.602Z,52.30
2018-05-10T09:59:26.195Z,52.00
2018-05-10T10:01:53.937Z,52.20
2018-05-10T10:04:21.492Z,52.40
2018-05-10T10:06:49.053Z,52.60
2018-05-10T10:09:17.109Z,52.20
2018-05-10T10:11:44.716Z,51.90
2018-05-10T10:14:12.301Z,51.90
2018-05-10T10:16:40.813Z,51.00
2018-05-10T10:19:08.386Z,51.00
2018-05-10T10:21:36.285Z,52.20
2018-05-10T10:24:03.994Z,52.70
2018-05-10T10:26:31.595Z,51.80
2018-05-10T10:28:59.145Z,51.80
2018-05-10T10:31:26.977Z,50.70
2018-05-10T10:33:56.035Z,50.30
2018-05-10T10:36:24.781Z,50.40
2018-05-10T10:38:52.304Z,50.40
2018-05-10T10:41:21.455Z,49.60
2018-05-10T10:43:49.882Z,49.60
2018-05-10T10:46:18.229Z,49.20
2018-05-10T10:48:45.830Z,49.20
2018-05-10T10:51:13.454Z,49.20
2018-05-10T10:53:40.984Z,49.40
2018-05-10T10:56:08.757Z,48.60
2018-05-10T10:58:36.301Z,48.70
2018-05-10T11:01:03.910Z,48.90
2018-05-10T11:03:31.947Z,48.20
2018-05-10T11:05:59.576Z,48.20
2018-05-10T11:08:27.433Z,48.00
2018-05-10T11:10:56.261Z,46.90
2018-05-10T11:13:23.933Z,46.70
2018-05-10T11:15:51.468Z,46.60
2018-05-10T11:18:19.045Z,46.80
2018-05-10T11:20:46.893Z,46.90
2018-05-10T11:23:14.426Z,45.80
2018-05-10T11:25:42.799Z,42.50
2018-05-10T11:28:11.928Z,42.50
2018-05-10T11:30:39.629Z,42.80
2018-05-10T11:33:08.681Z,43.00
2018-05-10T11:35:36.248Z,43.10
2018-05-10T11:38:03.832Z,42.60
2018-05-10T11:40:31.483Z,42.40
2018-05-10T11:43:00.160Z,42.30
2018-05-10T11:45:27.725Z,42.20
2018-05-10T11:47:55.589Z,42.20
2018-05-10T11:50:23.161Z,42.60
2018-05-10T11:52:50.722Z,42.50
2018-05-10T11:55:18.764Z,43.20
2018-05-10T11:57:47.124Z,43.40
2018-05-10T12:00:14.757Z,43.30
2018-05-10T12:02:42.353Z,43.20
2018-05-10T12:05:10.599Z,43.10
2018-05-10T12:07:38.140Z,43.70
2018-05-10T12:10:07.341Z,43.20
2018-05-10T12:12:35.715Z,43.60
2018-05-10T12:15:04.030Z,43.70
2018-05-10T12:17:32.382Z,44.10
2018-05-10T12:20:00.949Z,44.90
2018-05-10T12:22:28.530Z,45.60
2018-05-10T12:24:56.542Z,46.10
2018-05-10T12:27:25.016Z,46.10
2018-05-10T12:29:53.298Z,45.90
2018-05-10T12:32:21.606Z,44.80
2018-05-10T12:34:49.169Z,44.80
2018-05-10T12:37:17.763Z,44.30
2018-05-10T12:39:46.423Z,43.50
2018-05-10T12:42:14.436Z,42.90
2018-05-10T12:44:42.015Z,43.00
2018-05-10T12:47:09.897Z,42.10
2018-05-10T12:49:37.526Z,42.10
2018-05-10T12:52:05.264Z,41.40
2018-05-10T12:54:32.886Z,41.10
2018-05-10T12:57:00.874Z,41.10
2018-05-10T12:59:28.869Z,41.00
2018-05-10T13:01:56.473Z,40.50
2018-05-10T13:04:25.204Z,39.20
2018-05-10T13:06:54.206Z,39.60
2018-05-10T13:09:21.623Z,38.70
2018-05-10T13:11:49.943Z,38.50
2018-05-10T13:14:18.227Z,38.50
2018-05-10T13:16:47.949Z,39.20
2018-05-10T13:19:15.624Z,39.80
2018-05-10T13:21:43.205Z,39.10
2018-05-10T13:24:12.251Z,39.90
2018-05-10T13:26:40.401Z,39.80
2018-05-10T13:29:08.190Z,39.90
2018-05-10T13:31:35.827Z,40.90
2018-05-10T13:34:03.656Z,40.60
2018-05-10T13:36:31.917Z,40.70
2018-05-10T13:38:59.646Z,41.40
2018-05-10T13:41:31.240Z,41.30
2018-05-10T13:43:58.880Z,41.40
2018-05-10T13:46:27.234Z,42.10
2018-05-10T13:48:55.455Z,41.70
2018-05-10T13:51:23.698Z,41.70
2018-05-10T13:53:51.437Z,42.70
2018-05-10T13:56:19.722Z,42.70
2018-05-10T13:58:47.363Z,42.70
2018-05-10T14:01:15.150Z,43.00
2018-05-10T14:03:42.691Z,42.50
2018-05-10T14:06:11.060Z,42.10
2018-05-10T14:08:38.629Z,42.00
2018-05-10T14:11:06.566Z,41.80
2018-05-10T14:13:34.198Z,41.30
2018-05-10T14:16:02.221Z,40.80
2018-05-10T14:18:30.834Z,40.50
2018-05-10T14:20:58.366Z,40.90
2018-05-10T14:23:25.888Z,40.80
2018-05-10T14:25:53.452Z,40.70
2018-05-10T14:28:21.105Z,40.80
2018-05-10T14:30:48.691Z,40.60
2018-05-10T14:33:16.377Z,40.40
2018-05-10T14:35:44.046Z,40.20
2018-05-10T14:38:11.782Z,38.40
2018-05-10T14:40:39.376Z,38.10
2018-05-10T14:43:06.900Z,38.40
2018-05-10T14:45:34.537Z,38.80
2018-05-10T14:48:02.938Z,39.20
2018-05-10T14:50:30.516Z,40.00
2018-05-10T14:52:59.011Z,40.10
2018-05-10T14:55:26.893Z,40.10
2018-05-10T14:57:54.514Z,40.50
2018-05-10T15:00:22.253Z,39.80
2018-05-10T15:02:49.824Z,39.50
2018-05-10T15:05:18.765Z,39.60
2018-05-10T15:07:48.301Z,39.40
2018-05-10T15:10:16.469Z,40.00
2018-05-10T15:12:44.808Z,39.90
2018-05-10T15:15:12.519Z,39.50
2018-05-10T15:17:40.050Z,40.40
2018-05-10T15:20:07.656Z,40.00
2018-05-10T15:22:35.324Z,40.90
2018-05-10T15:25:03.145Z,40.50
2018-05-10T15:27:30.697Z,39.60
2018-05-10T15:29:58.270Z,39.40
2018-05-10T15:32:26.082Z,39.60
2018-05-10T15:34:53.627Z,39.10
2018-05-10T15:37:21.162Z,39.10
2018-05-10T15:39:49.423Z,39.60
2018-05-10T15:42:16.990Z,39.90
2018-05-10T15:44:44.536Z,39.20
2018-05-10T15:47:12.908Z,39.80
2018-05-10T15:49:40.770Z,39.80
2018-05-10T15:52:08.310Z,40.20
2018-05-10T15:54:37.210Z,44.20
2018-05-10T15:57:04.749Z,44.20
2018-05-10T15:59:33.136Z,47.60
2018-05-10T16:02:00.810Z,47.40
2018-05-10T16:04:28.582Z,46.30
2018-05-10T16:06:56.129Z,46.70
2018-05-10T16:09:23.755Z,48.00
2018-05-10T16:11:52.123Z,48.60
2018-05-10T16:14:20.428Z,48.10
2018-05-10T16:16:48.797Z,48.20
2018-05-10T16:19:16.332Z,48.00
2018-05-10T16:21:45.568Z,46.20
2018-05-10T16:24:13.142Z,46.20
2018-05-10T16:26:40.703Z,46.30
2018-05-10T16:29:08.932Z,46.20
2018-05-10T16:31:37.254Z,46.50
2018-05-10T16:34:05.650Z,46.60
2018-05-10T16:36:33.191Z,46.40
2018-05-10T16:39:00.983Z,47.00
2018-05-10T16:41:28.606Z,48.20
2018-05-10T16:43:56.179Z,48.30
2018-05-10T16:46:23.848Z,50.40
2018-05-10T16:48:52.145Z,53.40
2018-05-10T16:51:19.709Z,55.10
2018-05-10T16:53:48.758Z,55.60
2018-05-10T16:56:16.518Z,55.60
2018-05-10T16:58:44.094Z,57.70
2018-05-10T17:01:11.725Z,57.80
2018-05-10T17:03:39.252Z,58.40
2018-05-10T17:06:07.671Z,57.00
2018-05-10T17:08:36.253Z,57.00
2018-05-10T17:11:03.809Z,55.90
2018-05-10T17:13:31.364Z,57.00
2018-05-10T17:15:59.709Z,57.00
2018-05-10T17:18:27.319Z,57.00
2018-05-10T17:20:54.844Z,58.70
2018-05-10T17:23:22.438Z,60.30
2018-05-10T17:25:50.015Z,61.40
2018-05-10T17:28:17.575Z,65.60
2018-05-10T17:30:45.913Z,64.30
2018-05-10T17:33:14.123Z,65.60
2018-05-10T17:35:42.163Z,66.70
2018-05-10T17:38:11.049Z,65.70
2018-05-10T17:40:39.493Z,68.80
2018-05-10T17:43:07.060Z,68.80
2018-05-10T17:45:34.683Z,68.50
2018-05-10T17:48:02.898Z,69.40
2018-05-10T17:50:30.437Z,69.90
2018-05-10T17:52:58.183Z,67.90
2018-05-10T17:55:25.751Z,66.40
2018-05-10T17:57:54.216Z,60.40
2018-05-10T18:00:21.813Z,63.20
2018-05-10T18:02:49.385Z,66.90
2018-05-10T18:05:17.773Z,68.90
2018-05-10T18:07:45.328Z,69.60
2018-05-10T18:10:12.897Z,59.90
2018-05-10T18:12:41.229Z,65.80
2018-05-10T18:15:09.270Z,69.60
2018-05-10T18:17:37.973Z,70.10
2018-05-10T18:20:05.520Z,69.90
2018-05-10T18:22:33.077Z,72.40
2018-05-10T18:25:01.418Z,75.20
2018-05-10T18:27:29.359Z,75.00
2018-05-10T18:29:57.632Z,79.60
2018-05-10T18:32:25.384Z,80.50
2018-05-10T18:34:53.874Z,84.90
2018-05-10T18:37:21.416Z,86.90
2018-05-10T18:39:48.966Z,86.50
2018-05-10T18:42:17.728Z,89.60
2018-05-10T18:44:45.416Z,89.50
2018-05-10T18:47:13.178Z,90.60
2018-05-10T18:49:41.510Z,90.00
2018-05-10T18:52:09.258Z,90.10
2018-05-10T18:54:37.040Z,91.30
2018-05-10T18:57:04.836Z,91.10
2018-05-10T18:59:32.470Z,91.30
2018-05-10T19:02:00.129Z,91.30
2018-05-10T19:04:27.698Z,92.80
2018-05-10T19:06:55.272Z,92.50
2018-05-10T19:09:22.937Z,92.10
2018-05-10T19:11:50.906Z,92.90
2018-05-10T19:14:18.568Z,93.10
2018-05-10T19:16:46.293Z,93.40
2018-05-10T19:19:13.986Z,93.80
2018-05-10T19:21:42.301Z,93.00
2018-05-10T19:24:09.905Z,93.60
2018-05-10T19:26:37.575Z,93.70
2018-05-10T19:29:05.254Z,93.30
2018-05-10T19:31:33.087Z,92.50
2018-05-10T19:34:00.824Z,92.70
2018-05-10T19:36:29.652Z,92.50
2018-05-10T19:38:57.364Z,92.40
2018-05-10T19:41:25.034Z,92.80
2018-05-10T19:43:52.588Z,93.30
2018-05-10T19:46:20.150Z,93.00
2018-05-10T19:48:48.185Z,92.70
2018-05-10T19:51:15.797Z,92.50
2018-05-10T19:53:43.365Z,92.40
2018-05-10T19:56:11.219Z,91.90
2018-05-10T19:58:39.002Z,92.50
2018-05-10T20:01:06.773Z,93.10
2018-05-10T20:03:34.344Z,93.30
2018-05-10T20:06:02.823Z,92.50
2018-05-10T20:08:31.055Z,92.20
2018-05-10T20:11:00.024Z,93.10
2018-05-10T20:13:27.852Z,92.20
2018-05-10T20:15:55.394Z,93.80
2018-05-10T20:18:23.129Z,92.90
2018-05-10T20:20:52.439Z,93.00
2018-05-10T20:23:20.520Z,92.50
2018-05-10T20:25:48.203Z,93.70
2018-05-10T20:28:16.207Z,93.20
2018-05-10T20:30:44.022Z,92.70
2018-05-10T20:33:12.216Z,93.10
2018-05-10T20:35:39.835Z,92.80
2018-05-10T20:38:08.832Z,92.60
2018-05-10T20:40:39.271Z,92.80
2018-05-10T20:43:11.125Z,93.40
2018-05-10T20:45:38.739Z,93.30
2018-05-10T20:48:06.531Z,93.40
2018-05-10T20:50:34.247Z,93.30
2018-05-10T20:53:03.084Z,93.00
2018-05-10T20:55:30.843Z,93.00
2018-05-10T20:57:59.334Z,93.10
2018-05-10T21:00:26.941Z,94.00
2018-05-10T21:02:54.525Z,93.40
2018-05-10T21:05:22.242Z,93.10
2018-05-10T21:07:51.072Z,93.70
2018-05-10T21:10:19.568Z,93.80
2018-05-10T21:12:47.147Z,93.70
2018-05-10T21:15:14.895Z,93.90
2018-05-10T21:17:42.718Z,93.60
2018-05-10T21:20:16.917Z,94.00
2018-05-10T21:22:44.862Z,94.00
2018-05-10T21:25:16.099Z,94.00
2018-05-10T21:27:46.239Z,93.10
2018-05-10T21:30:13.886Z,94.00
2018-05-10T21:32:42.296Z,93.20
2018-05-10T21:35:10.608Z,93.30
2018-05-10T21:37:38.180Z,93.10
2018-05-10T21:40:05.840Z,93.40
2018-05-10T21:42:33.462Z,92.70
2018-05-10T21:45:01.018Z,92.80
2018-05-10T21:47:29.396Z,92.90
2018-05-10T21:50:06.546Z,92.80
2018-05-10T21:52:34.128Z,92.00
2018-05-10T21:55:02.070Z,92.40
2018-05-10T21:57:29.723Z,92.40
2018-05-10T21:59:58.531Z,92.70
2018-05-10T22:02:26.380Z,91.90
2018-05-10T22:04:53.964Z,92.60
2018-05-10T22:07:22.152Z,92.50
2018-05-10T22:09:50.465Z,91.90
2018-05-10T22:12:20.448Z,91.20
2018-05-10T22:14:47.983Z,91.10
2018-05-10T22:17:16.479Z,91.00
2018-05-10T22:19:44.397Z,91.70
2018-05-10T22:22:12.247Z,91.40
2018-05-10T22:24:39.871Z,91.40
2018-05-10T22:27:07.482Z,91.70
2018-05-10T22:29:35.267Z,91.90
2018-05-10T22:32:02.816Z,91.80
2018-05-10T22:34:31.187Z,92.20
2018-05-10T22:36:58.707Z,92.30
2018-05-10T22:39:26.517Z,92.30
2018-05-10T22:41:54.062Z,91.90
2018-05-10T22:44:22.848Z,92.20
2018-05-10T22:46:50.373Z,92.10
2018-05-10T22:49:17.914Z,92.40
2018-05-10T22:51:45.527Z,92.30
2018-05-10T22:54:13.046Z,92.30
2018-05-10T22:56:40.564Z,92.10
2018-05-10T22:59:08.733Z,91.70
2018-05-10T23:01:36.316Z,91.80
2018-05-10T23:04:03.874Z,91.80
2018-05-10T23:06:31.413Z,91.40
2018-05-10T23:08:58.967Z,91.70
2018-05-10T23:11:27.281Z,91.80
2018-05-10T23:13:55.113Z,91.80
2018-05-10T23:16:22.825Z,91.90
2018-05-10T23:18:50.511Z,91.60
2018-05-10T23:21:18.048Z,91.90
2018-05-10T23:23:46.942Z,91.40
2018-05-10T23:26:14.487Z,91.80
2018-05-10T23:28:42.116Z,92.00
2018-05-10T23:31:09.667Z,91.20
2018-05-10T23:33:37.666Z,91.90
2018-05-10T23:36:05.194Z,91.80
2018-05-10T23:38:32.751Z,91.80
2018-05-10T23:41:01.051Z,91.90
2018-05-10T23:43:28.592Z,91.80
2018-05-10T23:45:56.208Z,91.40
2018-05-10T23:48:23.766Z,91.40
2018-05-10T23:50:51.309Z,91.40
2018-05-10T23:53:18.868Z,91.20
2018-05-10T23:55:46.444Z,91.20
2018-05-10T23:58:14.118Z,91.20
